Time;durP1;ratioP1;P1;durP2;ratioP2;P2;SDS_P1;SDS_P2;PMS_P1;PMS_P2;Temp;Humidity;BMP_temperature;BMP_pressure;BME280_temperature;BME280_humidity;BME280_pressure;Samples;Min_cycle;Max_cycle;Signal;HPM_P1;HPM_P2
2023/08/07 00:01:02;;;;;;;;;4.67;2.33;;;;;18.66;55.25;101548.66;5039430;28;45584;-70
2023/08/07 00:03:28;;;;;;;;;1.67;1.67;;;;;18.61;55.87;101542.56;5039202;28;45492;-70
2023/08/07 00:05:57;;;;;;;;;1.33;1.33;;;;;18.36;55.52;101510.31;5037225;28;46322;-70
2023/08/07 00:08:23;;;;;;;;;2.67;2.00;;;;;18.58;55.64;101555.88;5038195;28;45578;-72
2023/08/07 00:10:49;;;;;;;;;3.67;1.33;;;;;18.21;55.68;101480.50;5037260;28;45406;-72
2023/08/07 00:13:14;;;;;;;;;5.33;2.67;;;;;17.90;55.68;101447.50;5035636;28;45745;-71
2023/08/07 00:15:40;;;;;;;;;1.00;1.00;;;;;18.47;55.69;101534.88;5037340;28;45530;-71
2023/08/07 00:18:06;;;;;;;;;2.00;1.00;;;;;18.31;55.50;101523.66;5036778;28;45516;-71
2023/08/07 00:20:31;;;;;;;;;2.00;1.00;;;;;17.76;55.50;101424.72;5038235;28;45342;-69
2023/08/07 00:22:57;;;;;;;;;3.00;1.33;;;;;18.44;56.02;101545.53;5053566;28;45823;-71
2023/08/07 00:25:23;;;;;;;;;1.33;1.33;;;;;18.05;55.96;101486.13;5027566;28;45567;-71
2023/08/07 00:27:49;;;;;;;;;1.33;1.00;;;;;17.65;55.83;101426.66;5038390;28;45889;-71
2023/08/07 00:30:14;;;;;;;;;3.00;2.33;;;;;18.26;55.86;101528.16;5037998;28;45599;-71
2023/08/07 00:32:40;;;;;;;;;1.00;1.00;;;;;18.41;56.03;101565.03;5038261;28;45674;-70
2023/08/07 00:35:08;;;;;;;;;2.33;2.00;;;;;17.45;56.27;101411.09;5052380;28;47598;-71
2023/08/07 00:37:34;;;;;;;;;2.00;1.67;;;;;18.36;56.16;101566.88;5027681;28;45480;-71
2023/08/07 00:39:59;;;;;;;;;3.00;2.00;;;;;18.27;56.10;101548.50;5037553;28;45516;-70
2023/08/07 00:42:25;;;;;;;;;2.33;2.33;;;;;18.15;56.53;101532.75;5037795;28;45354;-72
2023/08/07 00:44:50;;;;;;;;;1.33;1.33;;;;;17.80;56.17;101481.19;5037837;28;45631;-70
2023/08/07 00:47:16;;;;;;;;;1.33;1.33;;;;;17.64;56.33;101437.31;5033791;28;45564;-70
2023/08/07 00:49:42;;;;;;;;;2.00;1.67;;;;;18.09;56.39;101514.31;5036941;28;45501;-70
2023/08/07 00:52:08;;;;;;;;;1.00;1.00;;;;;17.97;56.26;101515.41;5038234;28;45432;-70
2023/08/07 00:54:33;;;;;;;;;1.00;1.00;;;;;17.69;56.45;101462.81;5037578;28;46354;-70
2023/08/07 00:57:10;;;;;;;;;1.00;1.00;;;;;18.25;56.72;101554.69;5037416;28;45473;-71
2023/08/07 00:59:36;;;;;;;;;3.33;0.33;;;;;18.26;56.70;101567.94;5037472;28;45696;-72
2023/08/07 01:02:05;;;;;;;;;1.67;1.67;;;;;18.23;57.14;101546.78;5037251;28;45618;-70
2023/08/07 01:04:31;;;;;;;;;2.33;2.00;;;;;18.21;56.90;101564.50;5036953;28;45452;-71
2023/08/07 01:06:57;;;;;;;;;4.33;2.00;;;;;18.11;56.88;101539.03;5053526;28;45465;-71
2023/08/07 01:09:23;;;;;;;;;1.00;1.00;;;;;18.17;57.00;101555.69;5038605;28;45431;-70
2023/08/07 01:11:56;;;;;;;;;1.33;1.33;;;;;17.65;57.28;101469.03;5038302;28;45515;-70
2023/08/07 01:14:40;;;;;;;;;1.67;1.33;;;;;18.12;57.24;101554.03;5037091;28;46497;-71
2023/08/07 01:17:10;;;;;;;;;1.67;1.00;;;;;17.79;57.37;101500.63;5036508;28;45478;-70
2023/08/07 01:19:37;;;;;;;;;1.67;1.67;;;;;18.02;57.78;101540.06;5038890;28;45516;-71
2023/08/07 01:22:09;;;;;;;;;2.00;1.00;;;;;18.07;57.49;101551.44;5037744;28;45692;-71
2023/08/07 01:24:36;;;;;;;;;1.33;1.00;;;;;18.08;57.62;101560.28;5037262;28;45491;-71
2023/08/07 01:27:17;;;;;;;;;3.67;1.33;;;;;17.92;57.72;101536.69;5035990;28;45399;-70
2023/08/07 01:29:59;;;;;;;;;2.33;2.00;;;;;17.94;58.13;101534.88;5037254;28;45231;-70
2023/08/07 01:32:48;;;;;;;;;5.00;2.33;;;;;17.94;58.13;101547.28;5036811;28;46309;-71
2023/08/07 01:35:16;;;;;;;;;2.67;1.00;;;;;17.79;57.98;101530.63;5037402;28;45483;-70
2023/08/07 01:38:07;;;;;;;;;2.67;1.00;;;;;17.97;58.25;101557.81;5039134;28;46226;-70
2023/08/07 01:40:33;;;;;;;;;0.00;0.00;;;;;17.78;58.25;101523.59;5037012;28;45567;-71
2023/08/07 01:43:00;;;;;;;;;4.00;1.67;;;;;17.95;58.68;101562.25;5037278;28;45523;-71
2023/08/07 01:45:27;;;;;;;;;3.00;2.00;;;;;17.40;58.81;101470.34;5034793;28;47153;-70
2023/08/07 01:47:53;;;;;;;;;2.00;2.00;;;;;17.68;58.48;101519.34;5036760;28;45338;-70
2023/08/07 01:50:19;;;;;;;;;3.00;2.00;;;;;17.60;58.73;101503.53;5035390;28;45475;-70
2023/08/07 01:52:46;;;;;;;;;3.00;1.67;;;;;17.80;58.48;101544.78;5036679;28;45426;-70
2023/08/07 01:55:13;;;;;;;;;1.00;1.00;;;;;17.86;58.80;101565.03;5037348;28;45551;-70
2023/08/07 01:57:52;;;;;;;;;3.00;1.00;;;;;17.72;59.19;101533.41;5036308;28;45488;-71
2023/08/07 02:00:18;;;;;;;;;3.33;1.33;;;;;17.31;59.09;101471.34;5036756;28;45317;-70
2023/08/07 02:02:57;;;;;;;;;1.00;1.00;;;;;17.82;59.00;101555.38;5036786;28;45630;-70
2023/08/07 02:05:23;;;;;;;;;2.00;2.00;;;;;17.67;59.30;101546.72;5036819;28;46200;-70
2023/08/07 02:07:48;;;;;;;;;1.67;1.67;;;;;17.67;59.03;101544.06;5037002;28;45460;-71
2023/08/07 02:10:14;;;;;;;;;1.67;1.00;;;;;17.44;59.30;101498.50;5036400;28;45389;-72
2023/08/07 02:12:40;;;;;;;;;2.00;2.00;;;;;17.66;59.33;101546.78;5052767;28;45365;-71
2023/08/07 02:15:06;;;;;;;;;1.67;1.67;;;;;17.66;59.64;101538.81;5034899;28;46751;-71
2023/08/07 02:17:32;;;;;;;;;1.00;1.00;;;;;17.17;59.97;101469.75;5036076;28;45342;-69
2023/08/07 02:19:58;;;;;;;;;1.33;1.33;;;;;17.03;59.83;101441.72;5036009;28;45416;-70
2023/08/07 02:22:24;;;;;;;;;2.00;1.00;;;;;17.75;59.85;101563.41;5035929;28;45474;-71
2023/08/07 02:24:50;;;;;;;;;2.00;2.00;;;;;17.68;59.90;101544.97;5036352;28;46625;-69
2023/08/07 02:27:16;;;;;;;;;6.00;1.00;;;;;17.53;59.72;101517.78;5034824;28;45432;-71
2023/08/07 02:29:42;;;;;;;;;0.00;0.00;;;;;17.77;59.31;101556.31;5037317;28;45278;-71
2023/08/07 02:32:07;;;;;;;;;2.00;2.00;;;;;17.23;60.00;101470.59;5037180;28;45407;-71
2023/08/07 02:34:33;;;;;;;;;3.67;1.33;;;;;17.64;60.02;101536.19;5035749;28;45596;-73
2023/08/07 02:36:59;;;;;;;;;1.67;1.67;;;;;17.75;59.68;101555.47;5036127;28;45410;-70
2023/08/07 02:39:25;;;;;;;;;1.67;1.67;;;;;17.70;60.40;101554.66;5036877;28;45371;-70
2023/08/07 02:41:50;;;;;;;;;4.00;2.67;;;;;17.12;60.75;101461.00;5035520;28;45351;-70
2023/08/07 02:44:17;;;;;;;;;2.33;1.00;;;;;17.42;60.28;101530.31;5036203;28;45518;-69
2023/08/07 02:46:43;;;;;;;;;1.00;1.00;;;;;17.56;60.43;101533.66;5035493;28;45396;-70
2023/08/07 02:49:09;;;;;;;;;1.00;1.00;;;;;17.56;60.66;101546.91;5034555;28;45543;-71
2023/08/07 02:51:34;;;;;;;;;2.67;2.00;;;;;17.35;60.94;101518.94;5035790;28;45441;-69
2023/08/07 02:54:00;;;;;;;;;1.00;1.00;;;;;17.45;61.05;101540.88;5035201;28;45510;-69
2023/08/07 02:56:26;;;;;;;;;4.33;1.00;;;;;17.15;61.19;101490.06;5035443;28;45330;-70
2023/08/07 02:58:51;;;;;;;;;3.00;2.00;;;;;17.30;61.13;101515.47;5034661;28;45483;-71
2023/08/07 03:01:17;;;;;;;;;7.00;2.33;;;;;16.93;61.45;101464.78;5035835;28;45490;-70
2023/08/07 03:03:43;;;;;;;;;3.00;2.00;;;;;17.42;61.49;101540.03;5037118;28;45516;-69
2023/08/07 03:06:08;;;;;;;;;2.67;1.00;;;;;16.97;61.97;101468.28;5036646;28;45452;-69
2023/08/07 03:08:34;;;;;;;;;5.33;2.00;;;;;16.95;61.35;101477.09;5035553;28;45319;-70
2023/08/07 03:11:00;;;;;;;;;1.67;1.67;;;;;16.95;61.85;101466.50;5035447;28;45410;-71
2023/08/07 03:13:28;;;;;;;;;2.33;1.33;;;;;17.37;61.84;101532.16;5033438;28;46959;-70
2023/08/07 03:16:04;;;;;;;;;1.00;1.00;;;;;17.08;61.46;101483.09;5035664;28;45379;-70
2023/08/07 03:18:31;;;;;;;;;2.33;2.33;;;;;17.46;61.73;101552.31;5035676;28;45435;-70
2023/08/07 03:20:57;;;;;;;;;4.00;2.00;;;;;17.36;61.87;101536.56;5035353;28;45412;-70
2023/08/07 03:23:24;;;;;;;;;2.00;1.00;;;;;17.47;61.71;101562.91;5036476;28;45334;-70
2023/08/07 03:25:50;;;;;;;;;2.67;2.00;;;;;16.71;61.86;101427.13;5035753;28;45446;-70
2023/08/07 03:28:16;;;;;;;;;2.67;1.00;;;;;17.46;62.32;101566.44;5035556;28;45790;-70
2023/08/07 03:30:42;;;;;;;;;1.67;1.67;;;;;17.22;61.96;101517.31;5036887;28;45754;-71
2023/08/07 03:33:08;;;;;;;;;1.33;1.00;;;;;17.20;62.02;101521.75;5036350;28;47748;-70
2023/08/07 03:35:34;;;;;;;;;1.00;1.00;;;;;17.11;61.85;101506.91;5037853;28;45286;-70
2023/08/07 03:37:59;;;;;;;;;1.67;1.67;;;;;17.04;62.47;101494.63;5038143;28;45593;-71
2023/08/07 03:40:25;;;;;;;;;3.00;1.33;;;;;17.34;62.40;101553.38;5039045;28;45536;-70
2023/08/07 03:42:50;;;;;;;;;2.00;1.00;;;;;17.34;62.34;101556.88;5038366;28;45485;-70
2023/08/07 03:45:16;;;;;;;;;3.33;1.00;;;;;17.40;62.52;101560.38;5038416;28;45522;-70
2023/08/07 03:47:42;;;;;;;;;4.00;1.33;;;;;16.89;62.50;101479.81;5039042;28;46036;-71
2023/08/07 03:50:08;;;;;;;;;4.33;1.00;;;;;17.05;62.43;101504.31;5039441;28;45465;-71
2023/08/07 03:52:33;;;;;;;;;2.00;2.00;;;;;17.25;62.54;101541.13;5037041;28;47425;-71
2023/08/07 03:54:59;;;;;;;;;2.00;1.00;;;;;16.72;62.75;101450.00;5038369;28;45423;-70
2023/08/07 03:57:25;;;;;;;;;4.00;2.00;;;;;17.40;62.62;101565.66;5053414;28;45433;-71
2023/08/07 03:59:50;;;;;;;;;2.00;2.00;;;;;16.99;64.22;101499.13;5038674;28;45334;-67
2023/08/07 04:02:16;;;;;;;;;3.00;2.00;;;;;17.02;63.09;101477.91;5038659;28;47055;-71
2023/08/07 04:04:41;;;;;;;;;2.00;2.00;;;;;17.54;62.66;101561.94;5039706;28;45422;-71
2023/08/07 04:07:07;;;;;;;;;2.00;2.00;;;;;17.56;64.02;101565.44;5039216;28;45338;-68
2023/08/07 04:09:33;;;;;;;;;2.33;2.00;;;;;17.60;63.14;101566.25;5039797;28;45480;-66
2023/08/07 04:11:59;;;;;;;;;1.00;1.00;;;;;17.65;63.36;101558.25;5037993;28;46278;-67
2023/08/07 04:14:24;;;;;;;;;1.67;1.67;;;;;17.66;63.17;101555.59;5036899;28;45495;-67
2023/08/07 04:16:51;;;;;;;;;3.00;2.00;;;;;17.64;62.48;101546.78;5038563;28;45588;-73
2023/08/07 04:19:19;;;;;;;;;2.00;2.00;;;;;17.69;62.53;101565.25;5038256;28;45703;-73
2023/08/07 04:21:45;;;;;;;;;1.33;1.33;;;;;17.67;62.69;101569.69;5038568;28;46722;-72
2023/08/07 04:24:11;;;;;;;;;2.00;2.00;;;;;17.63;62.84;101573.28;5039034;28;45454;-72
2023/08/07 04:26:38;;;;;;;;;4.33;4.33;;;;;17.08;62.94;101495.47;5037667;28;45466;-71
2023/08/07 04:29:03;;;;;;;;;1.00;1.00;;;;;17.57;63.03;101571.59;5038236;28;45507;-73
2023/08/07 04:31:32;;;;;;;;;2.00;2.00;;;;;17.28;62.63;101529.63;5036210;28;47090;-72
2023/08/07 04:33:58;;;;;;;;;3.00;2.00;;;;;17.21;63.03;101526.19;5035864;28;45526;-73
2023/08/07 04:36:24;;;;;;;;;3.00;1.67;;;;;17.50;63.04;101575.22;5053455;28;45555;-72
2023/08/07 04:38:50;;;;;;;;;4.33;3.33;;;;;17.30;63.20;101536.66;5037381;28;45400;-73
2023/08/07 04:41:15;;;;;;;;;3.33;3.33;;;;;17.36;63.57;101563.03;5034655;28;47930;-73
2023/08/07 04:43:42;;;;;;;;;4.00;2.00;;;;;17.07;63.63;101509.59;5038980;28;45503;-73
2023/08/07 04:46:09;;;;;;;;;4.00;2.67;;;;;17.44;63.40;101577.94;5053968;28;45571;-72
2023/08/07 04:48:35;;;;;;;;;3.00;3.00;;;;;17.41;63.56;101578.88;5037930;28;45519;-72
2023/08/07 04:51:01;;;;;;;;;7.67;2.00;;;;;17.12;63.71;101539.53;5037039;28;45607;-72
2023/08/07 04:53:26;;;;;;;;;3.67;2.33;;;;;16.88;63.53;101495.72;5038794;28;45952;-73
2023/08/07 04:55:52;;;;;;;;;3.67;2.00;;;;;17.38;63.83;101585.06;5041093;28;45498;-72
2023/08/07 04:58:18;;;;;;;;;2.00;2.00;;;;;17.32;64.02;101582.53;5039670;28;45520;-73
2023/08/07 05:00:44;;;;;;;;;3.00;2.67;;;;;17.31;63.97;101590.47;5039501;28;45778;-73
2023/08/07 05:03:10;;;;;;;;;3.33;2.67;;;;;17.33;64.38;101580.75;5038824;28;45294;-73
2023/08/07 05:05:35;;;;;;;;;1.00;1.00;;;;;17.17;65.01;101582.69;5037262;28;45376;-73
2023/08/07 05:08:01;;;;;;;;;4.67;4.00;;;;;16.42;65.50;101470.63;5037466;28;45506;-73
2023/08/07 05:10:27;;;;;;;;;4.00;3.00;;;;;16.52;65.31;101488.16;5037039;28;46371;-73
2023/08/07 05:12:55;;;;;;;;;3.33;1.33;;;;;16.65;65.62;101509.16;5037393;28;45448;-72
2023/08/07 05:15:25;;;;;;;;;4.33;2.00;;;;;17.03;65.42;101571.41;5035845;28;45500;-72
2023/08/07 05:17:52;;;;;;;;;2.67;2.67;;;;;17.28;64.95;101591.41;5035792;28;45779;-73
2023/08/07 05:20:18;;;;;;;;;6.00;3.00;;;;;17.38;64.83;101598.31;5030714;28;46467;-73
2023/08/07 05:22:44;;;;;;;;;3.00;1.00;;;;;17.06;64.22;101524.63;5029291;28;45493;-72
2023/08/07 05:25:11;;;;;;;;;3.00;3.00;;;;;16.90;64.23;101484.22;5036945;28;45528;-73
2023/08/07 05:27:36;;;;;;;;;3.67;3.33;;;;;17.59;64.32;101598.94;5036636;28;45451;-72
2023/08/07 05:30:03;;;;;;;;;6.00;3.00;;;;;17.63;64.07;101600.66;5035360;28;46248;-72
2023/08/07 05:32:28;;;;;;;;;4.33;3.00;;;;;17.68;64.06;101606.78;5037177;28;45327;-73
2023/08/07 05:34:54;;;;;;;;;3.00;2.67;;;;;17.32;64.09;101536.63;5036901;28;45378;-73
2023/08/07 05:37:19;;;;;;;;;6.67;5.33;;;;;17.13;64.25;101494.53;5037664;28;45431;-74
2023/08/07 05:39:45;;;;;;;;;6.33;4.33;;;;;17.62;64.03;101575.06;5035481;28;45369;-72
2023/08/07 05:42:12;;;;;;;;;9.67;6.67;;;;;17.42;64.10;101534.75;5035925;28;45924;-73
2023/08/07 05:44:37;;;;;;;;;8.00;8.00;;;;;17.90;64.13;101611.81;5036177;28;45646;-73
2023/08/07 05:47:03;;;;;;;;;7.67;7.00;;;;;17.50;64.48;101539.03;5036594;28;45311;-74
2023/08/07 05:49:29;;;;;;;;;10.67;8.67;;;;;17.50;64.26;101551.41;5035214;28;47718;-73
2023/08/07 05:51:54;;;;;;;;;10.00;8.67;;;;;17.90;63.87;101617.97;5035765;28;45693;-73
2023/08/07 05:54:20;;;;;;;;;11.00;9.67;;;;;17.91;64.22;101613.53;5035565;28;45639;-72
2023/08/07 05:56:45;;;;;;;;;10.00;8.67;;;;;17.75;64.08;101592.56;5035414;28;45718;-73
2023/08/07 05:59:11;;;;;;;;;13.00;10.00;;;;;17.93;64.16;101623.22;5036991;28;45468;-73
2023/08/07 06:01:38;;;;;;;;;11.00;8.67;;;;;17.97;64.17;101609.03;5036636;28;45527;-73
2023/08/07 06:04:04;;;;;;;;;9.33;8.00;;;;;17.62;64.10;101556.50;5035820;28;45533;-73
2023/08/07 06:06:30;;;;;;;;;11.33;10.00;;;;;17.93;64.01;101594.06;5036666;28;45413;-74
2023/08/07 06:08:55;;;;;;;;;11.33;10.67;;;;;18.13;64.02;101609.69;5035300;28;46552;-73
2023/08/07 06:11:21;;;;;;;;;7.67;7.67;;;;;17.59;63.88;101506.25;5036721;28;45496;-72
2023/08/07 06:13:47;;;;;;;;;10.67;10.00;;;;;18.31;63.50;101613.81;5036001;28;45761;-74
2023/08/07 06:16:12;;;;;;;;;12.67;9.67;;;;;18.06;63.66;101565.63;5035023;28;45311;-73
2023/08/07 06:18:38;;;;;;;;;10.67;7.67;;;;;18.09;63.03;101560.25;5035483;28;46448;-73
2023/08/07 06:21:06;;;;;;;;;9.67;8.67;;;;;18.34;63.61;101589.00;5035984;28;45503;-73
2023/08/07 06:23:35;;;;;;;;;12.33;10.67;;;;;18.61;62.99;101611.56;5036017;28;45385;-73
2023/08/07 06:26:07;;;;;;;;;9.00;8.33;;;;;18.71;62.75;101615.78;5036739;28;45321;-74
2023/08/07 06:28:33;;;;;;;;;8.67;7.00;;;;;18.80;62.16;101613.00;5036168;28;45409;-73
2023/08/07 06:31:04;;;;;;;;;7.33;6.67;;;;;18.67;62.35;101595.50;5036073;28;45469;-75
2023/08/07 06:33:31;;;;;;;;;12.67;7.67;;;;;18.84;62.01;101620.03;5036126;28;45431;-73
2023/08/07 06:35:57;;;;;;;;;9.67;8.00;;;;;18.18;61.97;101515.03;5036661;28;45504;-73
2023/08/07 06:38:23;;;;;;;;;10.00;7.67;;;;;18.74;61.92;101612.22;5049553;28;47912;-73
2023/08/07 06:40:48;;;;;;;;;11.00;7.33;;;;;18.76;61.97;101613.06;5035576;28;45492;-75
2023/08/07 06:43:14;;;;;;;;;8.33;6.33;;;;;18.69;61.64;101590.19;5051229;28;45778;-73
2023/08/07 06:45:39;;;;;;;;;9.33;6.00;;;;;18.99;61.71;101632.13;5035924;28;45417;-74
2023/08/07 06:48:05;;;;;;;;;10.00;6.67;;;;;18.36;61.53;101520.91;5034943;28;45587;-74
2023/08/07 06:50:34;;;;;;;;;10.00;8.33;;;;;18.65;61.52;101570.81;5035865;28;45399;-74
2023/08/07 06:53:00;;;;;;;;;6.33;6.33;;;;;19.19;60.87;101652.97;5036334;28;45509;-74
2023/08/07 06:55:26;;;;;;;;;7.00;6.33;;;;;18.79;60.96;101583.84;5037294;28;45553;-74
2023/08/07 06:57:52;;;;;;;;;5.67;5.00;;;;;18.93;61.05;101618.09;5036695;28;46555;-73
2023/08/07 07:00:17;;;;;;;;;7.00;7.00;;;;;19.18;61.06;101655.69;5035602;28;45502;-73
2023/08/07 07:02:43;;;;;;;;;7.33;6.67;;;;;19.21;61.16;101652.97;5035879;28;45418;-72
2023/08/07 07:05:09;;;;;;;;;8.67;7.00;;;;;19.13;60.99;101638.97;5036913;28;46402;-73
2023/08/07 07:07:35;;;;;;;;;8.67;5.67;;;;;19.21;60.55;101664.44;5038314;28;45490;-73
2023/08/07 07:10:01;;;;;;;;;8.67;7.67;;;;;18.89;60.94;101617.28;5039059;28;45605;-72
2023/08/07 07:12:27;;;;;;;;;6.00;5.67;;;;;18.77;60.87;101588.28;5038867;28;45407;-73
2023/08/07 07:14:53;;;;;;;;;6.00;6.00;;;;;18.90;60.70;101597.78;5054802;28;45538;-73
2023/08/07 07:17:18;;;;;;;;;10.67;7.00;;;;;19.45;60.29;101675.50;5039064;28;46285;-73
2023/08/07 07:19:44;;;;;;;;;7.33;6.33;;;;;18.72;60.26;101561.84;5061580;28;45335;-74
2023/08/07 07:22:10;;;;;;;;;5.67;5.67;;;;;19.43;60.24;101666.69;5046514;28;45908;-72
2023/08/07 07:24:36;;;;;;;;;9.33;7.00;;;;;19.55;59.79;101670.88;5037470;28;45946;-72
2023/08/07 07:27:02;;;;;;;;;6.00;6.00;;;;;19.74;59.70;101674.94;5039430;28;46928;-74
2023/08/07 07:29:28;;;;;;;;;9.00;6.67;;;;;19.58;59.02;101629.19;5040232;28;45440;-74
2023/08/07 07:31:55;;;;;;;;;6.67;6.00;;;;;19.62;58.83;101601.66;5039201;28;45408;-74
2023/08/07 07:34:21;;;;;;;;;8.00;6.67;;;;;19.41;58.45;101560.47;5038417;28;45532;-74
2023/08/07 07:36:46;;;;;;;;;8.67;6.00;;;;;20.04;58.68;101675.19;5038806;28;46330;-73
2023/08/07 07:39:12;;;;;;;;;6.33;6.00;;;;;19.93;58.24;101646.16;5038371;28;45517;-75
2023/08/07 07:41:38;;;;;;;;;10.67;5.67;;;;;20.13;58.21;101680.31;5036758;28;45466;-73
2023/08/07 07:44:03;;;;;;;;;8.00;7.00;;;;;19.47;58.55;101556.81;5038068;28;45206;-74
2023/08/07 07:46:29;;;;;;;;;6.33;5.33;;;;;19.83;57.62;101595.00;5036478;28;47696;-72
2023/08/07 07:48:56;;;;;;;;;10.00;5.33;;;;;20.29;57.61;101676.38;5038753;28;45479;-69
2023/08/07 07:51:25;;;;;;;;;5.67;5.00;;;;;20.18;58.17;101662.44;5038462;28;45976;-68
2023/08/07 07:53:51;;;;;;;;;7.67;5.67;;;;;20.31;57.99;101679.88;5054097;28;45670;-67
2023/08/07 07:56:16;;;;;;;;;11.67;7.33;;;;;20.32;58.27;101684.28;5038366;28;45367;-68
2023/08/07 07:58:42;;;;;;;;;8.33;7.00;;;;;20.38;58.23;101677.94;5038015;28;45579;-68
2023/08/07 08:01:08;;;;;;;;;10.00;6.00;;;;;20.47;57.83;101672.38;5038431;28;45552;-71
2023/08/07 08:03:39;;;;;;;;;9.00;5.67;;;;;20.40;57.52;101660.16;5038972;28;45341;-71
2023/08/07 08:06:05;;;;;;;;;8.00;7.67;;;;;20.62;57.54;101684.50;5037899;28;46069;-71
2023/08/07 08:08:31;;;;;;;;;7.00;6.00;;;;;20.57;57.29;101678.38;5038069;28;45841;-71
2023/08/07 08:10:57;;;;;;;;;5.00;4.67;;;;;20.75;58.16;101687.72;5038126;28;45359;-70
2023/08/07 08:13:25;;;;;;;;;6.33;6.00;;;;;20.63;57.48;101646.31;5038385;28;45354;-68
2023/08/07 08:15:50;;;;;;;;;6.67;6.00;;;;;20.82;57.21;101664.47;5036337;28;46082;-68
2023/08/07 08:18:16;;;;;;;;;8.00;5.33;;;;;20.96;56.88;101688.97;5037192;28;45496;-70
2023/08/07 08:20:42;;;;;;;;;7.33;5.33;;;;;21.19;55.89;101701.69;5037506;28;46771;-73
2023/08/07 08:23:08;;;;;;;;;5.67;4.33;;;;;21.13;55.59;101683.19;5038586;28;45441;-73
2023/08/07 08:25:33;;;;;;;;;9.00;7.00;;;;;21.30;55.07;101696.03;5038287;28;46677;-72
2023/08/07 08:28:00;;;;;;;;;7.67;7.33;;;;;20.94;54.88;101633.06;5037634;28;45838;-73
2023/08/07 08:30:26;;;;;;;;;5.33;5.33;;;;;21.31;54.48;101708.47;5038022;28;45651;-72
2023/08/07 08:32:52;;;;;;;;;8.00;6.00;;;;;20.92;54.69;101658.00;5031548;28;45426;-71
2023/08/07 08:35:17;;;;;;;;;7.33;6.00;;;;;21.13;54.79;101702.69;5033434;28;46093;-71
2023/08/07 08:37:43;;;;;;;;;7.33;6.00;;;;;21.21;54.44;101696.28;5037156;28;45329;-72
2023/08/07 08:40:14;;;;;;;;;6.67;5.00;;;;;21.01;54.11;101649.75;5038766;28;45429;-72
2023/08/07 08:42:40;;;;;;;;;6.67;6.33;;;;;21.27;54.25;101697.00;5034569;28;45350;-72
2023/08/07 08:45:08;;;;;;;;;7.33;4.33;;;;;21.15;53.63;101665.38;5038141;28;46224;-72
2023/08/07 08:47:37;;;;;;;;;5.00;4.00;;;;;21.42;53.59;101692.19;5036958;28;45268;-72
2023/08/07 08:50:14;;;;;;;;;8.33;5.00;;;;;21.48;52.90;101697.38;5036679;28;45383;-72
2023/08/07 08:52:44;;;;;;;;;8.33;6.00;;;;;21.55;52.84;101698.94;5038033;28;45453;-70
2023/08/07 08:55:11;;;;;;;;;4.00;3.00;;;;;21.61;52.89;101698.75;5037435;28;46131;-71
2023/08/07 08:57:38;;;;;;;;;5.00;5.00;;;;;21.42;52.26;101653.09;5037763;28;45501;-71
2023/08/07 09:00:18;;;;;;;;;6.33;3.33;;;;;21.65;52.13;101683.56;5037440;28;45802;-70
2023/08/07 09:02:45;;;;;;;;;7.00;4.00;;;;;21.44;51.88;101643.25;5038210;28;45540;-71
2023/08/07 09:05:11;;;;;;;;;4.67;4.00;;;;;21.72;51.64;101679.78;5023095;28;45589;-71
2023/08/07 09:07:37;;;;;;;;;6.33;6.00;;;;;21.60;51.92;101665.88;5050110;28;45594;-71
2023/08/07 09:10:03;;;;;;;;;5.00;3.33;;;;;21.64;51.57;101674.69;5030936;28;45386;-70
2023/08/07 09:12:32;;;;;;;;;4.67;4.00;;;;;21.62;52.09;101679.19;5035048;28;45536;-71
2023/08/07 09:15:01;;;;;;;;;5.33;5.33;;;;;21.62;51.89;101688.94;5034139;28;46120;-72
2023/08/07 09:17:35;;;;;;;;;7.67;4.00;;;;;21.65;51.48;101694.22;5035260;28;45455;-71
2023/08/07 09:20:01;;;;;;;;;3.67;3.00;;;;;21.48;51.46;101660.06;5033900;28;45536;-69
2023/08/07 09:22:26;;;;;;;;;6.00;5.00;;;;;21.70;50.96;101692.28;5027338;28;46423;-71
2023/08/07 09:24:52;;;;;;;;;6.00;4.00;;;;;21.78;50.75;101700.91;5035879;28;45397;-71
2023/08/07 09:27:18;;;;;;;;;5.67;5.67;;;;;21.69;50.76;101702.09;5033991;28;45348;-72
2023/08/07 09:29:46;;;;;;;;;4.67;4.67;;;;;21.64;50.90;101701.34;5033572;28;45511;-71
2023/08/07 09:32:13;;;;;;;;;6.00;4.33;;;;;21.60;51.33;101686.34;5029132;28;45408;-73
2023/08/07 09:34:42;;;;;;;;;7.33;5.00;;;;;21.63;51.55;101688.06;5035248;28;45390;-72
2023/08/07 09:37:08;;;;;;;;;3.00;3.00;;;;;21.58;51.29;101673.06;5034444;28;45551;-72
2023/08/07 09:39:35;;;;;;;;;5.00;5.00;;;;;21.09;50.65;101589.16;5034350;28;45555;-72
2023/08/07 09:42:04;;;;;;;;;4.50;4.50;;;;;21.34;50.07;101612.44;5034399;28;45508;-74
2023/08/07 09:44:37;;;;;;;;;7.33;4.33;;;;;21.72;50.03;101664.66;5035058;28;45729;-73
2023/08/07 09:47:17;;;;;;;;;5.67;4.33;;;;;21.92;49.75;101698.72;5031779;28;45750;-74
2023/08/07 09:49:43;;;;;;;;;4.00;4.00;;;;;21.57;49.99;101646.47;5035564;28;45589;-73
2023/08/07 09:52:16;;;;;;;;;6.00;5.33;;;;;21.68;49.44;101670.13;5033946;28;45654;-72
2023/08/07 09:54:42;;;;;;;;;4.00;2.33;;;;;21.81;49.02;101695.53;5030505;28;45356;-73
2023/08/07 09:57:11;;;;;;;;;3.33;2.00;;;;;21.84;48.88;101681.22;5031960;28;45886;-73
2023/08/07 09:59:49;;;;;;;;;5.00;4.00;;;;;21.82;48.82;101675.91;5031362;28;45464;-72
2023/08/07 10:02:14;;;;;;;;;5.00;3.33;;;;;21.47;48.56;101613.84;5032417;28;45489;-73
2023/08/07 10:04:43;;;;;;;;;3.67;3.67;;;;;21.83;49.03;101663.44;5035714;28;46026;-75
2023/08/07 10:07:12;;;;;;;;;3.67;3.67;;;;;22.13;48.77;101696.31;5033554;28;45979;-73
2023/08/07 10:09:42;;;;;;;;;4.00;3.67;;;;;22.28;48.32;101695.91;5035735;28;45496;-74
2023/08/07 10:12:08;;;;;;;;;3.67;2.00;;;;;22.20;47.54;101660.53;5034225;28;45586;-73
2023/08/07 10:14:34;;;;;;;;;3.33;2.33;;;;;22.37;47.49;101695.56;5049660;28;45594;-73
2023/08/07 10:16:59;;;;;;;;;3.00;3.00;;;;;22.35;46.97;101683.19;5029331;28;45431;-73
2023/08/07 10:19:28;;;;;;;;;5.33;4.00;;;;;22.37;46.71;101684.03;5034499;28;45561;-72
2023/08/07 10:21:54;;;;;;;;;5.00;3.33;;;;;22.20;46.74;101657.84;5029239;28;45798;-73
2023/08/07 10:24:20;;;;;;;;;5.00;3.33;;;;;21.79;46.24;101580.88;5032678;28;45469;-73
2023/08/07 10:26:48;;;;;;;;;5.67;3.33;;;;;22.37;46.68;101684.91;5034051;28;46400;-75
2023/08/07 10:29:19;;;;;;;;;3.00;3.00;;;;;22.51;46.62;101680.91;5033232;28;45911;-75
2023/08/07 10:31:45;;;;;;;;;6.67;3.33;;;;;22.51;46.21;101655.09;5032987;28;46443;-73
2023/08/07 10:34:11;;;;;;;;;6.00;3.33;;;;;22.23;46.50;101594.63;5034125;28;46933;-75
2023/08/07 10:36:40;;;;;;;;;4.67;4.00;;;;;22.81;45.43;101668.34;5036256;28;45465;-73
2023/08/07 10:39:11;;;;;;;;;2.00;2.00;;;;;22.89;45.25;101668.94;5036199;28;45466;-75
2023/08/07 10:41:46;;;;;;;;;4.00;4.00;;;;;22.69;45.42;101644.72;5040399;28;45334;-73
2023/08/07 10:44:22;;;;;;;;;2.33;2.33;;;;;23.01;44.83;101673.00;5036701;28;46344;-73
2023/08/07 10:46:49;;;;;;;;;4.00;4.00;;;;;22.74;43.86;101632.97;5038312;28;45817;-74
2023/08/07 10:49:34;;;;;;;;;3.00;3.00;;;;;22.79;44.14;101687.09;5036681;28;45643;-73
2023/08/07 10:52:14;;;;;;;;;3.67;3.00;;;;;22.88;44.09;101679.69;5035876;28;45519;-74
2023/08/07 10:54:45;;;;;;;;;3.33;3.00;;;;;23.03;43.83;101671.16;5037014;28;45643;-70
2023/08/07 10:57:14;;;;;;;;;3.50;3.50;;;;;23.23;44.31;101665.09;5033655;28;45884;-71
2023/08/07 11:00:01;;;;;;;;;2.00;2.00;;;;;23.40;44.86;101664.50;5035863;28;45742;-71
2023/08/07 11:02:33;;;;;;;;;3.00;3.00;;;;;23.53;43.57;101660.44;5036914;28;45429;-72
2023/08/07 11:04:59;;;;;;;;;3.25;2.75;;;;;23.57;42.84;101655.84;5037981;28;45567;-73
2023/08/07 11:07:26;;;;;;;;;3.50;3.50;;;;;23.28;42.36;101645.31;5037388;28;45363;-73
2023/08/07 11:09:52;;;;;;;;;4.00;3.00;;;;;22.99;42.63;101600.97;5037873;28;45443;-72
2023/08/07 11:12:19;;;;;;;;;5.00;3.00;;;;;22.96;42.83;101566.28;5039112;28;45457;-72
2023/08/07 11:14:44;;;;;;;;;3.00;3.00;;;;;23.26;42.23;101588.38;5040003;28;45530;-72
2023/08/07 11:17:12;;;;;;;;;3.25;3.25;;;;;23.08;41.17;101531.13;5037369;28;46258;-72
2023/08/07 11:19:38;;;;;;;;;4.00;4.00;;;;;23.94;40.97;101655.31;5054472;28;45406;-73
2023/08/07 11:22:04;;;;;;;;;4.00;3.00;;;;;23.59;41.07;101585.34;5037641;28;45586;-73
2023/08/07 11:24:29;;;;;;;;;5.00;3.00;;;;;23.41;41.35;101573.53;5037302;28;47856;-73